createdAt,value
2022-11-05T00:06:16.960Z,13.23
2022-11-05T00:16:36.674Z,13.35
2022-11-05T00:26:38.028Z,15.13
2022-11-05T00:36:39.372Z,13.43
2022-11-05T00:46:40.691Z,13.90
2022-11-05T00:56:42.034Z,16.85
2022-11-05T01:06:43.385Z,17.37
2022-11-05T01:16:45.403Z,19.77
2022-11-05T01:26:46.747Z,16.75
2022-11-05T01:36:48.079Z,19.77
2022-11-05T01:46:49.445Z,18.40
2022-11-05T01:56:55.761Z,18.45
2022-11-05T02:06:57.618Z,16.10
2022-11-05T02:17:10.942Z,17.13
2022-11-05T02:27:30.536Z,19.13
2022-11-05T02:37:40.452Z,17.90
2022-11-05T02:47:47.394Z,17.77
2022-11-05T02:57:48.777Z,17.93
2022-11-05T03:08:02.789Z,16.80
2022-11-05T03:18:26.825Z,21.33
2022-11-05T03:28:32.250Z,20.73
2022-11-05T03:38:40.399Z,20.08
2022-11-05T03:48:46.576Z,23.13
2022-11-05T03:58:48.699Z,21.77
2022-11-05T04:09:09.155Z,21.33
2022-11-05T04:19:10.473Z,26.77
2022-11-05T04:29:30.343Z,22.07
2022-11-05T04:39:31.661Z,28.40
2022-11-05T04:49:33.279Z,22.67
2022-11-05T04:59:34.622Z,22.40
2022-11-05T05:09:35.961Z,22.33
2022-11-05T05:19:57.275Z,20.67
2022-11-05T05:29:59.534Z,23.23
2022-11-05T05:40:00.903Z,21.00
2022-11-05T05:50:02.261Z,22.17
2022-11-05T06:00:05.319Z,23.63
2022-11-05T06:10:06.979Z,25.30
2022-11-05T06:20:08.973Z,25.17
2022-11-05T06:30:10.806Z,27.60
2022-11-05T06:40:12.177Z,31.23
2022-11-05T06:50:13.610Z,31.40
2022-11-05T07:00:15.458Z,33.33
2022-11-05T07:10:18.314Z,32.10
2022-11-05T07:20:20.734Z,33.23
2022-11-05T07:30:22.079Z,33.27
2022-11-05T07:40:25.751Z,35.83
2022-11-05T07:50:33.269Z,38.13
2022-11-05T08:00:34.752Z,45.80
2022-11-05T08:10:37.627Z,41.45
2022-11-05T08:20:40.303Z,33.33
2022-11-05T08:30:41.988Z,35.20
2022-11-05T08:40:45.414Z,37.28
2022-11-05T08:50:48.525Z,46.42
2022-11-05T09:00:50.274Z,35.97
2022-11-05T09:10:51.707Z,34.13
2022-11-05T09:20:53.120Z,29.70
2022-11-05T09:30:54.545Z,33.00
2022-11-05T09:41:08.555Z,23.83
2022-11-05T09:51:14.447Z,22.67
2022-11-05T10:01:24.773Z,21.90
2022-11-05T10:11:40.417Z,21.43
2022-11-05T10:22:05.452Z,16.02
2022-11-05T10:32:05.721Z,15.02
2022-11-05T10:42:13.827Z,16.47
2022-11-05T10:52:35.636Z,15.00
2022-11-05T11:02:37.126Z,12.30
2022-11-05T11:12:43.291Z,15.80
2022-11-05T11:22:59.098Z,13.03
2022-11-05T11:33:09.330Z,10.63
2022-11-05T11:43:27.277Z,11.33
2022-11-05T11:53:35.385Z,9.67
2022-11-05T12:03:45.754Z,12.82
2022-11-05T12:14:04.550Z,11.15
2022-11-05T12:24:43.424Z,9.30
2022-11-05T12:35:02.760Z,9.00
2022-11-05T12:45:09.950Z,9.00
2022-11-05T12:55:17.625Z,9.27
2022-11-05T13:05:37.564Z,9.47
2022-11-05T13:15:47.663Z,9.00
2022-11-05T13:25:55.612Z,6.43
2022-11-05T13:36:22.792Z,7.43
2022-11-05T13:46:40.665Z,9.50
2022-11-05T13:57:09.368Z,9.70
2022-11-05T14:07:22.544Z,8.30
2022-11-05T14:17:33.552Z,10.57
2022-11-05T14:27:37.734Z,7.50
2022-11-05T14:37:53.036Z,8.77
2022-11-05T14:47:58.007Z,9.37
2022-11-05T14:57:59.295Z,9.45
2022-11-05T15:08:24.551Z,7.30
2022-11-05T15:18:40.550Z,10.23
2022-11-05T15:29:02.186Z,8.98
2022-11-05T15:39:30.156Z,7.40
2022-11-05T15:49:31.857Z,8.87
2022-11-05T15:59:34.969Z,9.90
2022-11-05T16:09:39.980Z,8.93
2022-11-05T16:19:42.153Z,8.10
2022-11-05T16:29:55.426Z,8.17
2022-11-05T16:39:56.758Z,8.90
2022-11-05T16:49:58.466Z,6.03
2022-11-05T17:00:00.645Z,7.73
2022-11-05T17:10:01.999Z,6.65
2022-11-05T17:20:03.604Z,5.70
2022-11-05T17:30:05.587Z,7.43
2022-11-05T17:40:08.251Z,7.00
2022-11-05T17:50:13.449Z,6.78
2022-11-05T18:00:20.649Z,8.70
2022-11-05T18:10:23.366Z,7.37
2022-11-05T18:20:24.762Z,8.35
2022-11-05T18:30:26.093Z,7.47
2022-11-05T18:40:27.631Z,8.97
2022-11-05T18:50:29.457Z,7.43
2022-11-05T19:00:31.990Z,9.35
2022-11-05T19:10:33.327Z,8.07
2022-11-05T19:20:37.757Z,9.83
2022-11-05T19:30:39.542Z,8.30
2022-11-05T19:40:40.911Z,9.83
2022-11-05T19:50:43.512Z,7.87
2022-11-05T20:00:44.871Z,10.10
2022-11-05T20:10:46.295Z,9.47
2022-11-05T20:20:47.853Z,10.47
2022-11-05T20:30:49.204Z,9.65
2022-11-05T20:40:50.747Z,10.57
2022-11-05T20:50:52.797Z,9.33
2022-11-05T21:00:55.941Z,10.83
2022-11-05T21:10:57.362Z,8.18
2022-11-05T21:21:00.297Z,9.37
2022-11-05T21:31:03.244Z,8.57
2022-11-05T21:41:05.638Z,9.30
2022-11-05T21:51:26.222Z,10.83
2022-11-05T22:01:27.793Z,8.73
2022-11-05T22:11:29.447Z,9.43
2022-11-05T22:21:30.799Z,7.72
2022-11-05T22:31:36.225Z,9.05
2022-11-05T22:41:38.517Z,8.75
2022-11-05T22:51:40.587Z,10.70
2022-11-05T23:01:44.109Z,8.13
2022-11-05T23:11:51.889Z,6.80
2022-11-05T23:22:11.713Z,10.00
2022-11-05T23:32:24.864Z,8.67
2022-11-05T23:42:44.824Z,8.98
2022-11-05T23:52:46.182Z,7.97
